createdAt,value
2023-03-19T00:02:17.702Z,0.51
2023-03-19T00:06:12.550Z,0.51
2023-03-19T00:10:11.680Z,0.51
2023-03-19T00:14:11.496Z,0.51
2023-03-19T00:18:11.538Z,0.50
2023-03-19T00:22:11.594Z,0.52
2023-03-19T00:26:11.779Z,0.51
2023-03-19T00:30:11.894Z,0.52
2023-03-19T00:34:12.032Z,0.51
2023-03-19T00:38:12.112Z,0.52
2023-03-19T00:42:12.220Z,0.51
2023-03-19T00:46:12.372Z,0.51
2023-03-19T00:50:12.570Z,0.51
2023-03-19T00:54:12.561Z,0.51
2023-03-19T00:58:12.797Z,0.51
2023-03-19T01:02:12.906Z,0.51
2023-03-19T01:06:13.041Z,0.51
2023-03-19T01:10:13.112Z,0.51
2023-03-19T01:14:13.286Z,0.50
2023-03-19T01:18:14.306Z,0.51
2023-03-19T01:22:13.632Z,0.52
2023-03-19T01:26:13.925Z,0.51
2023-03-19T01:30:13.991Z,0.52
2023-03-19T01:34:14.167Z,0.52
2023-03-19T01:38:14.241Z,0.51
2023-03-19T01:42:14.403Z,0.51
2023-03-19T01:46:14.750Z,0.52
2023-03-19T01:50:14.471Z,0.52
2023-03-19T01:54:14.636Z,0.53
2023-03-19T01:58:14.770Z,0.51
2023-03-19T02:02:14.795Z,0.52
2023-03-19T02:06:15.098Z,0.52
2023-03-19T02:10:15.138Z,0.52
2023-03-19T02:14:15.813Z,0.52
2023-03-19T02:18:15.297Z,0.52
2023-03-19T02:22:15.464Z,0.52
2023-03-19T02:26:15.844Z,0.52
2023-03-19T02:30:15.832Z,0.52
2023-03-19T02:34:15.904Z,0.52
2023-03-19T02:38:15.966Z,0.50
2023-03-19T02:42:16.129Z,0.52
2023-03-19T02:46:16.282Z,0.52
2023-03-19T02:50:16.285Z,0.51
2023-03-19T02:54:16.411Z,0.51
2023-03-19T02:58:16.738Z,0.52
2023-03-19T03:02:16.835Z,0.51
2023-03-19T03:06:16.833Z,0.52
2023-03-19T03:10:16.994Z,0.52
2023-03-19T03:14:17.129Z,0.51
2023-03-19T03:18:17.238Z,0.52
2023-03-19T03:22:17.449Z,0.51
2023-03-19T03:26:17.515Z,0.51
2023-03-19T03:30:17.704Z,0.51
2023-03-19T03:34:18.278Z,0.50
2023-03-19T03:38:17.919Z,0.50
2023-03-19T03:42:18.403Z,0.51
2023-03-19T03:46:18.297Z,0.51
2023-03-19T03:50:18.354Z,0.52
2023-03-19T03:54:18.426Z,0.51
2023-03-19T03:58:18.484Z,0.50
2023-03-19T04:02:18.869Z,0.51
2023-03-19T04:06:20.327Z,0.51
2023-03-19T04:10:18.809Z,0.51
2023-03-19T04:14:18.897Z,0.51
2023-03-19T04:18:19.274Z,0.51
2023-03-19T04:22:19.048Z,0.51
2023-03-19T04:26:19.164Z,0.50
2023-03-19T04:30:19.307Z,0.51
2023-03-19T04:34:19.417Z,0.51
2023-03-19T04:38:19.486Z,0.51
2023-03-19T04:42:19.668Z,0.51
2023-03-19T04:46:19.801Z,0.51
2023-03-19T04:50:19.888Z,0.51
2023-03-19T04:54:19.977Z,0.51
2023-03-19T04:58:21.874Z,0.51
2023-03-19T05:02:20.193Z,0.51
2023-03-19T05:06:20.318Z,0.51
2023-03-19T05:10:20.448Z,0.51
2023-03-19T05:14:20.510Z,0.52
2023-03-19T05:18:20.695Z,0.52
2023-03-19T05:22:21.332Z,0.51
2023-03-19T05:26:20.988Z,0.51
2023-03-19T05:30:21.148Z,0.51
2023-03-19T05:34:21.358Z,0.51
2023-03-19T05:38:21.827Z,0.51
2023-03-19T05:42:21.596Z,0.52
2023-03-19T05:46:21.810Z,0.52
2023-03-19T05:50:22.061Z,0.52
2023-03-19T05:54:22.326Z,0.52
2023-03-19T05:58:22.254Z,0.51
2023-03-19T06:02:22.488Z,0.52
2023-03-19T06:06:22.346Z,0.52
2023-03-19T06:10:22.372Z,0.51
2023-03-19T06:14:22.393Z,0.52
2023-03-19T06:18:22.879Z,0.51
2023-03-19T06:22:22.501Z,0.51
2023-03-19T06:26:22.571Z,0.56
2023-03-19T06:30:22.595Z,0.62
2023-03-19T06:34:22.867Z,0.57
2023-03-19T06:38:22.897Z,0.53
2023-03-19T06:42:23.060Z,0.52
2023-03-19T06:46:22.939Z,0.62
2023-03-19T06:50:23.185Z,0.81
2023-03-19T06:54:23.120Z,0.76
2023-03-19T06:58:23.220Z,0.73
2023-03-19T07:02:23.349Z,0.69
2023-03-19T07:06:23.523Z,0.58
2023-03-19T07:10:23.507Z,0.50
2023-03-19T07:14:23.424Z,0.50
2023-03-19T07:18:23.487Z,0.51
2023-03-19T07:22:23.356Z,0.52
2023-03-19T07:26:23.278Z,0.51
2023-03-19T07:30:23.258Z,0.52
2023-03-19T07:34:23.213Z,0.53
2023-03-19T07:38:23.210Z,0.53
2023-03-19T07:42:23.185Z,0.54
2023-03-19T07:46:23.201Z,0.53
2023-03-19T07:50:23.501Z,0.53
2023-03-19T07:54:23.020Z,0.53
2023-03-19T07:58:22.997Z,0.52
2023-03-19T08:02:23.845Z,0.52
2023-03-19T08:06:22.887Z,0.53
2023-03-19T08:10:23.425Z,0.53
2023-03-19T08:14:23.101Z,0.55
2023-03-19T08:18:23.367Z,0.55
2023-03-19T08:22:23.030Z,0.54
2023-03-19T08:26:22.964Z,0.54
2023-03-19T08:30:23.393Z,0.55
2023-03-19T08:34:22.960Z,0.55
2023-03-19T08:38:22.928Z,0.55
2023-03-19T08:42:22.892Z,0.54
2023-03-19T08:46:22.811Z,0.55
2023-03-19T08:50:22.747Z,0.55
2023-03-19T08:54:23.131Z,0.56
2023-03-19T08:58:22.883Z,0.55
2023-03-19T09:02:23.387Z,0.55
2023-03-19T09:06:23.180Z,0.55
2023-03-19T09:10:25.058Z,0.55
2023-03-19T09:14:23.180Z,0.56
2023-03-19T09:18:23.211Z,0.55
2023-03-19T09:22:23.446Z,0.53
2023-03-19T09:26:23.472Z,0.53
2023-03-19T09:30:23.315Z,0.53
2023-03-19T09:34:23.332Z,0.54
2023-03-19T09:38:30.492Z,0.54
2023-03-19T09:42:23.229Z,0.54
2023-03-19T09:46:23.196Z,0.54
2023-03-19T09:50:23.128Z,0.53
2023-03-19T09:54:23.105Z,0.53
2023-03-19T09:58:23.234Z,0.52
2023-03-19T10:02:25.925Z,0.53
2023-03-19T10:06:23.234Z,0.52
2023-03-19T10:10:23.610Z,0.51
2023-03-19T10:14:23.175Z,0.51
2023-03-19T10:18:23.228Z,0.52
2023-03-19T10:22:23.682Z,0.51
2023-03-19T10:26:23.119Z,0.51
2023-03-19T10:30:23.045Z,0.50
2023-03-19T10:34:24.039Z,0.51
2023-03-19T10:38:23.449Z,0.50
2023-03-19T10:42:23.459Z,0.51
2023-03-19T10:46:23.000Z,0.50
2023-03-19T10:50:23.172Z,0.50
2023-03-19T10:54:23.072Z,0.50
2023-03-19T10:58:23.076Z,0.51
2023-03-19T11:02:23.483Z,0.51
2023-03-19T11:06:22.989Z,0.51
2023-03-19T11:10:22.965Z,0.51
2023-03-19T11:14:22.894Z,0.51
2023-03-19T11:18:22.789Z,0.51
2023-03-19T11:22:22.780Z,0.51
2023-03-19T11:26:22.803Z,0.52
2023-03-19T11:30:22.880Z,0.51
2023-03-19T11:34:23.001Z,0.51
2023-03-19T11:38:22.771Z,0.50
2023-03-19T11:42:22.749Z,0.51
2023-03-19T11:46:23.036Z,0.50
2023-03-19T11:50:22.692Z,0.50
2023-03-19T11:54:22.666Z,0.51
2023-03-19T11:58:22.582Z,0.50
2023-03-19T12:02:22.604Z,0.51
2023-03-19T12:06:22.674Z,0.51
2023-03-19T12:10:22.657Z,0.51
2023-03-19T12:14:22.624Z,0.51
2023-03-19T12:18:22.551Z,0.51
2023-03-19T12:22:22.530Z,0.51
2023-03-19T12:26:22.510Z,0.51
2023-03-19T12:30:22.511Z,0.50
2023-03-19T12:34:22.439Z,0.51
2023-03-19T12:38:22.434Z,0.51
2023-03-19T12:42:22.320Z,0.51
2023-03-19T12:46:22.474Z,0.50
2023-03-19T12:50:22.419Z,0.51
2023-03-19T12:54:22.408Z,0.50
2023-03-19T12:58:22.335Z,0.51
2023-03-19T13:02:22.362Z,0.51
2023-03-19T13:06:22.257Z,0.50
2023-03-19T13:10:22.230Z,0.50
2023-03-19T13:14:22.204Z,0.50
2023-03-19T13:18:22.175Z,0.51
2023-03-19T13:22:22.144Z,0.51
2023-03-19T13:26:22.221Z,0.51
2023-03-19T13:30:22.052Z,0.51
2023-03-19T13:34:22.480Z,0.51
2023-03-19T13:38:21.994Z,0.51
2023-03-19T13:42:21.963Z,0.51
2023-03-19T13:46:21.993Z,0.51
2023-03-19T13:50:21.892Z,0.51
2023-03-19T13:54:21.820Z,0.51
2023-03-19T13:58:21.788Z,0.51
2023-03-19T14:02:21.765Z,0.51
2023-03-19T14:06:21.754Z,0.51
2023-03-19T14:10:21.759Z,0.51
2023-03-19T14:14:21.629Z,0.52
2023-03-19T14:18:22.104Z,0.51
2023-03-19T14:22:21.625Z,0.51
2023-03-19T14:26:22.003Z,0.51
2023-03-19T14:30:21.563Z,0.51
2023-03-19T14:34:21.548Z,0.51
2023-03-19T14:38:22.489Z,0.50
2023-03-19T14:42:21.692Z,0.51
2023-03-19T14:46:21.812Z,0.51
2023-03-19T14:50:21.949Z,0.51
2023-03-19T14:54:22.535Z,0.50
2023-03-19T14:58:22.266Z,0.50
2023-03-19T15:02:22.582Z,0.51
2023-03-19T15:06:22.498Z,0.51
2023-03-19T15:10:22.776Z,0.51
2023-03-19T15:14:22.865Z,0.51
2023-03-19T15:18:23.079Z,0.51
2023-03-19T15:22:23.565Z,0.51
2023-03-19T15:26:23.427Z,0.51
2023-03-19T15:30:25.052Z,0.51
2023-03-19T15:34:23.815Z,0.51
2023-03-19T15:38:23.968Z,0.50
2023-03-19T15:42:24.042Z,0.51
2023-03-19T15:46:23.921Z,0.51
2023-03-19T15:50:23.874Z,0.51
2023-03-19T15:54:23.787Z,0.51
2023-03-19T15:58:23.824Z,0.51
2023-03-19T16:02:23.889Z,0.51
2023-03-19T16:06:26.841Z,0.51
2023-03-19T16:10:23.742Z,0.51
2023-03-19T16:14:23.653Z,0.51
2023-03-19T16:18:23.616Z,0.51
2023-03-19T16:22:23.596Z,0.50
2023-03-19T16:26:23.530Z,0.50
2023-03-19T16:30:24.058Z,0.51
2023-03-19T16:34:23.469Z,0.52
2023-03-19T16:38:23.476Z,0.51
2023-03-19T16:42:23.354Z,0.50
2023-03-19T16:46:23.499Z,0.51
2023-03-19T16:50:23.562Z,0.51
2023-03-19T16:54:23.736Z,0.51
2023-03-19T16:58:24.007Z,0.52
2023-03-19T17:02:24.056Z,0.51
2023-03-19T17:06:24.203Z,0.51
2023-03-19T17:10:24.378Z,0.50
2023-03-19T17:14:24.654Z,0.51
2023-03-19T17:18:24.701Z,0.50
2023-03-19T17:22:24.812Z,0.51
2023-03-19T17:26:25.050Z,0.51
2023-03-19T17:30:27.024Z,0.50
2023-03-19T17:34:27.230Z,0.51
2023-03-19T17:38:25.065Z,0.50
2023-03-19T17:42:25.080Z,0.51
2023-03-19T17:46:26.480Z,0.51
2023-03-19T17:50:25.418Z,0.51
2023-03-19T17:54:25.606Z,0.51
2023-03-19T17:58:25.670Z,0.51
2023-03-19T18:02:25.741Z,0.51
2023-03-19T18:06:26.136Z,0.52
2023-03-19T18:10:25.841Z,0.51
2023-03-19T18:14:25.927Z,0.52
2023-03-19T18:18:26.105Z,0.51
2023-03-19T18:22:26.027Z,0.51
2023-03-19T18:26:26.005Z,0.51
2023-03-19T18:30:26.052Z,0.51
2023-03-19T18:34:26.134Z,0.51
2023-03-19T18:38:26.227Z,0.51
2023-03-19T18:42:26.277Z,0.52
2023-03-19T18:46:26.382Z,0.52
2023-03-19T18:50:26.441Z,0.51
2023-03-19T18:54:26.471Z,0.51
2023-03-19T18:58:26.500Z,0.52
2023-03-19T19:02:26.645Z,0.51
2023-03-19T19:06:44.115Z,0.51
2023-03-19T19:10:27.785Z,0.52
2023-03-19T19:14:26.740Z,0.51
2023-03-19T19:18:27.934Z,0.52
2023-03-19T19:22:27.132Z,0.51
2023-03-19T19:26:27.220Z,0.50
2023-03-19T19:30:28.298Z,0.50
2023-03-19T19:34:27.312Z,0.51
2023-03-19T19:38:27.238Z,0.51
2023-03-19T19:42:27.257Z,0.51
2023-03-19T19:46:27.240Z,0.51
2023-03-19T19:50:27.202Z,0.51
2023-03-19T19:54:27.235Z,0.52
2023-03-19T19:58:27.169Z,0.51
2023-03-19T20:02:27.268Z,0.52
2023-03-19T20:06:27.300Z,0.51
2023-03-19T20:10:27.385Z,0.50
2023-03-19T20:14:27.347Z,0.53
2023-03-19T20:18:28.078Z,0.52
2023-03-19T20:22:27.424Z,0.52
2023-03-19T20:26:27.387Z,0.51
2023-03-19T20:30:27.484Z,0.51
2023-03-19T20:34:38.843Z,0.51
2023-03-19T20:38:28.403Z,0.51
2023-03-19T20:42:28.165Z,0.51
2023-03-19T20:46:27.516Z,0.51
2023-03-19T20:50:27.382Z,0.51
2023-03-19T20:54:27.265Z,0.52
2023-03-19T20:58:27.290Z,0.51
2023-03-19T21:02:27.211Z,0.52
2023-03-19T21:06:27.191Z,0.51
2023-03-19T21:10:27.681Z,0.51
2023-03-19T21:14:27.096Z,0.51
2023-03-19T21:18:27.106Z,0.51
2023-03-19T21:22:27.679Z,0.51
2023-03-19T21:26:27.043Z,0.52
2023-03-19T21:30:27.021Z,0.51
2023-03-19T21:34:27.010Z,0.50
2023-03-19T21:38:27.068Z,0.51
2023-03-19T21:42:27.062Z,0.51
2023-03-19T21:46:27.145Z,0.51
2023-03-19T21:50:27.116Z,0.51
2023-03-19T21:54:27.133Z,0.52
2023-03-19T21:58:27.225Z,0.51
2023-03-19T22:02:27.384Z,0.53
2023-03-19T22:06:27.419Z,0.54
2023-03-19T22:10:28.201Z,0.51
2023-03-19T22:14:27.384Z,0.52
2023-03-19T22:18:27.473Z,0.52
2023-03-19T22:22:27.506Z,0.53
2023-03-19T22:26:27.490Z,0.52
2023-03-19T22:30:27.489Z,0.55
2023-03-19T22:34:27.552Z,0.54
2023-03-19T22:38:27.767Z,0.55
2023-03-19T22:42:27.549Z,0.55
2023-03-19T22:46:27.729Z,0.54
2023-03-19T22:50:27.791Z,0.55
2023-03-19T22:54:27.778Z,0.55
2023-03-19T22:58:27.834Z,0.57
2023-03-19T23:02:28.865Z,0.56
2023-03-19T23:06:30.564Z,0.56
2023-03-19T23:10:28.058Z,0.56
2023-03-19T23:14:30.795Z,0.56
2023-03-19T23:18:27.884Z,0.55
2023-03-19T23:22:27.840Z,0.54
2023-03-19T23:26:27.933Z,0.53
2023-03-19T23:30:27.740Z,0.55
2023-03-19T23:34:27.804Z,0.54
2023-03-19T23:38:27.746Z,0.56
2023-03-19T23:42:27.714Z,0.54
2023-03-19T23:46:27.734Z,0.55
2023-03-19T23:50:27.538Z,0.54
2023-03-19T23:54:27.537Z,0.52
2023-03-19T23:58:28.203Z,0.51
